Time;durP1;ratioP1;P1;durP2;ratioP2;P2;SDS_P1;SDS_P2;PMS_P1;PMS_P2;Temp;Humidity;BMP_temperature;BMP_pressure;BME280_temperature;BME280_humidity;BME280_pressure;Samples;Min_cycle;Max_cycle;Signal;HPM_P1;HPM_P2
2022/10/12 00:01:40;;;;;;;16.57;9.77;;;7.50;1.00;;;;;;6331648;27;20390;-54
2022/10/12 00:04:44;;;;;;;12.97;10.53;;;7.80;1.00;;;;;;6335784;27;20328;-54
2022/10/12 00:07:47;;;;;;;10.70;9.70;;;7.30;1.00;;;;;;6330673;27;20790;-53
2022/10/12 00:10:50;;;;;;;11.03;9.60;;;7.50;1.00;;;;;;6310543;28;20225;-54
2022/10/12 00:13:54;;;;;;;14.53;10.90;;;7.50;1.00;;;;;;6310795;28;20233;-54
2022/10/12 00:16:57;;;;;;;11.60;9.83;;;7.60;1.00;;;;;;6309776;28;20607;-53
2022/10/12 00:20:01;;;;;;;11.60;9.93;;;7.30;1.00;;;;;;6309963;28;20240;-54
2022/10/12 00:23:04;;;;;;;12.43;10.07;;;7.50;1.00;;;;;;6310910;28;20697;-53
2022/10/12 00:26:10;;;;;;;13.07;8.90;;;7.60;1.00;;;;;;6334318;27;20265;-53
2022/10/12 00:29:12;;;;;;;11.93;10.13;;;7.40;1.00;;;;;;6337471;27;20236;-54
2022/10/12 00:32:15;;;;;;;10.60;9.60;;;7.50;1.00;;;;;;6334504;28;20244;-53
2022/10/12 00:35:19;;;;;;;11.50;9.83;;;7.50;1.00;;;;;;6332581;27;20239;-53
2022/10/12 00:38:23;;;;;;;9.57;8.67;;;7.50;1.00;;;;;;6334595;27;20228;-55
2022/10/12 00:41:29;;;;;;;9.83;8.93;;;7.50;1.00;;;;;;6330481;27;20721;-53
2022/10/12 00:44:41;;;;;;;11.50;9.07;;;7.40;1.00;;;;;;6311453;28;20237;-53
2022/10/12 00:47:49;;;;;;;14.70;9.40;;;7.40;1.00;;;;;;6333113;28;20235;-54
2022/10/12 00:50:55;;;;;;;10.00;9.07;;;7.50;1.00;;;;;;6321684;28;20605;-55
2022/10/12 00:54:02;;;;;;;10.30;9.03;;;7.40;1.00;;;;;;6321010;27;20228;-54
2022/10/12 00:57:06;;;;;;;10.97;9.40;;;7.40;1.00;;;;;;6334228;27;20669;-54
2022/10/12 01:00:10;;;;;;;10.67;9.67;;;7.40;1.00;;;;;;6334846;27;20587;-56
2022/10/12 01:03:17;;;;;;;10.70;9.57;;;7.40;1.00;;;;;;6332453;27;20263;-54
2022/10/12 01:06:21;;;;;;;11.10;10.00;;;7.40;1.00;;;;;;6334848;27;20232;-53
2022/10/12 01:09:24;;;;;;;11.67;10.50;;;7.50;1.00;;;;;;6335027;28;20872;-54
2022/10/12 01:12:28;;;;;;;11.80;10.43;;;7.70;1.00;;;;;;6323480;27;20826;-54
2022/10/12 01:15:36;;;;;;;12.60;10.77;;;7.30;1.00;;;;;;6309262;28;20241;-54
2022/10/12 01:18:45;;;;;;;14.90;12.13;;;7.20;1.00;;;;;;6308980;28;20231;-55
2022/10/12 01:21:55;;;;;;;13.20;11.50;;;7.60;1.00;;;;;;6325270;28;20624;-59
2022/10/12 01:25:09;;;;;;;14.07;11.37;;;7.20;1.00;;;;;;6327089;27;20636;-54
2022/10/12 01:28:19;;;;;;;13.30;11.97;;;7.30;1.00;;;;;;6336969;27;20225;-53
2022/10/12 01:31:30;;;;;;;14.50;11.53;;;7.40;1.00;;;;;;6331955;27;20372;-54
2022/10/12 01:34:43;;;;;;;15.53;12.30;;;7.60;1.00;;;;;;6325987;27;20259;-53
2022/10/12 01:37:52;;;;;;;13.60;11.80;;;7.30;1.00;;;;;;6333030;27;20621;-53
2022/10/12 01:41:02;;;;;;;15.30;12.37;;;7.60;1.00;;;;;;6309158;28;20622;-55
2022/10/12 01:44:05;;;;;;;14.93;12.37;;;7.30;1.00;;;;;;6309129;28;20240;-53
2022/10/12 01:47:09;;;;;;;14.37;12.87;;;7.10;1.00;;;;;;6309103;28;20245;-53
2022/10/12 01:50:14;;;;;;;12.50;11.30;;;7.20;1.00;;;;;;6308985;28;20232;-54
2022/10/12 01:53:28;;;;;;;12.67;11.13;;;7.40;1.00;;;;;;6308371;28;20229;-55
2022/10/12 01:56:38;;;;;;;12.43;11.03;;;7.10;1.00;;;;;;6322080;27;20239;-54
2022/10/12 01:59:51;;;;;;;11.13;10.10;;;7.10;1.00;;;;;;6325959;27;20700;-54
2022/10/12 02:03:05;;;;;;;11.10;9.97;;;7.30;1.00;;;;;;6333296;27;20232;-52
2022/10/12 02:06:11;;;;;;;11.67;10.13;;;7.10;1.00;;;;;;6328517;27;20231;-52
2022/10/12 02:09:20;;;;;;;11.03;10.03;;;7.00;1.00;;;;;;6309060;28;20237;-53
2022/10/12 02:12:28;;;;;;;11.13;10.00;;;7.10;1.00;;;;;;6308760;28;20240;-54
2022/10/12 02:15:33;;;;;;;12.00;10.70;;;7.10;1.00;;;;;;6321636;27;20448;-55
2022/10/12 02:18:39;;;;;;;11.17;10.07;;;7.10;1.00;;;;;;6309932;27;20220;-53
2022/10/12 02:21:44;;;;;;;11.00;10.10;;;7.10;1.00;;;;;;6325231;27;20240;-53
2022/10/12 02:24:50;;;;;;;10.63;9.63;;;7.40;1.00;;;;;;6333450;27;20613;-53
2022/10/12 02:27:58;;;;;;;13.37;11.20;;;7.00;1.00;;;;;;6330427;27;20220;-53
2022/10/12 02:31:07;;;;;;;13.83;11.17;;;7.00;1.00;;;;;;6333879;27;20244;-54
2022/10/12 02:34:15;;;;;;;17.80;14.43;;;7.10;1.00;;;;;;6333810;27;20243;-53
2022/10/12 02:37:27;;;;;;;17.93;15.97;;;7.00;1.00;;;;;;6312709;28;20605;-55
2022/10/12 02:40:33;;;;;;;16.40;14.67;;;7.00;1.00;;;;;;6310341;28;20396;-53
2022/10/12 02:43:38;;;;;;;16.50;14.90;;;7.00;1.00;;;;;;6310481;28;20277;-53
2022/10/12 02:46:43;;;;;;;16.57;14.77;;;7.00;1.00;;;;;;6309268;28;20455;-54
2022/10/12 02:49:48;;;;;;;18.33;14.40;;;7.10;1.00;;;;;;6321939;27;20232;-54
2022/10/12 02:52:52;;;;;;;14.93;13.33;;;7.00;1.00;;;;;;6336885;28;20550;-54
2022/10/12 02:56:00;;;;;;;15.63;13.17;;;6.90;1.00;;;;;;6328793;27;20360;-53
2022/10/12 02:59:03;;;;;;;13.97;12.57;;;7.00;1.00;;;;;;6332584;27;20298;-54
2022/10/12 03:02:07;;;;;;;14.47;11.97;;;7.00;1.00;;;;;;6338028;27;20244;-54
2022/10/12 03:05:11;;;;;;;13.70;12.30;;;7.00;1.00;;;;;;6335264;27;20235;-53
2022/10/12 03:08:14;;;;;;;13.07;11.77;;;6.70;1.00;;;;;;6336399;27;20243;-53
2022/10/12 03:11:17;;;;;;;13.67;11.43;;;6.90;1.00;;;;;;6331779;28;20727;-53
2022/10/12 03:14:20;;;;;;;14.20;12.40;;;6.90;1.00;;;;;;6337668;27;20389;-54
2022/10/12 03:17:23;;;;;;;14.33;12.77;;;6.80;1.00;;;;;;6337073;27;20310;-53
2022/10/12 03:20:27;;;;;;;14.90;12.97;;;7.10;1.00;;;;;;6322672;28;20660;-53
2022/10/12 03:23:30;;;;;;;13.40;12.13;;;7.20;1.00;;;;;;6320602;28;20231;-53
2022/10/12 03:26:33;;;;;;;15.43;12.27;;;6.80;1.00;;;;;;6338247;27;20240;-54
2022/10/12 03:29:36;;;;;;;14.00;12.60;;;7.20;1.00;;;;;;6333879;27;20228;-54
2022/10/12 03:32:39;;;;;;;13.37;11.47;;;6.90;1.00;;;;;;6315005;27;20236;-53
2022/10/12 03:35:45;;;;;;;12.80;11.70;;;7.00;1.00;;;;;;6333558;28;20232;-52
2022/10/12 03:38:47;;;;;;;13.10;11.67;;;6.90;1.00;;;;;;6334626;27;20228;-53
2022/10/12 03:41:50;;;;;;;12.37;10.80;;;6.70;1.00;;;;;;6333050;28;20229;-54
2022/10/12 03:44:53;;;;;;;11.40;9.83;;;7.00;1.00;;;;;;6334843;28;20236;-54
2022/10/12 03:47:56;;;;;;;11.40;10.33;;;6.90;1.00;;;;;;6332143;27;20239;-54
2022/10/12 03:51:07;;;;;;;11.30;10.17;;;6.70;1.00;;;;;;6334757;27;20231;-53
2022/10/12 03:54:10;;;;;;;11.57;10.47;;;6.80;1.00;;;;;;6334006;27;20561;-53
2022/10/12 03:57:12;;;;;;;13.33;10.20;;;7.00;1.00;;;;;;6334618;27;20239;-53
2022/10/12 04:00:16;;;;;;;11.20;10.23;;;7.00;1.00;;;;;;6333085;27;20247;-54
2022/10/12 04:03:18;;;;;;;12.67;10.30;;;7.00;1.00;;;;;;6334712;27;20232;-54
2022/10/12 04:06:23;;;;;;;10.90;9.80;;;6.80;1.00;;;;;;6331291;28;20224;-53
2022/10/12 04:09:25;;;;;;;11.27;10.07;;;6.80;1.00;;;;;;6326850;27;20235;-53
2022/10/12 04:12:28;;;;;;;11.47;10.37;;;6.80;1.00;;;;;;6331588;27;20236;-55
2022/10/12 04:15:31;;;;;;;11.63;10.37;;;6.80;1.00;;;;;;6333550;27;20224;-52
2022/10/12 04:18:34;;;;;;;13.03;10.87;;;6.80;1.00;;;;;;6331466;27;20231;-54
2022/10/12 04:21:39;;;;;;;12.00;10.00;;;6.70;1.00;;;;;;6334403;27;20602;-53
2022/10/12 04:24:42;;;;;;;12.47;10.57;;;6.80;1.00;;;;;;6334606;27;20644;-52
2022/10/12 04:27:44;;;;;;;11.03;10.03;;;6.90;1.00;;;;;;6331883;27;20337;-53
2022/10/12 04:30:47;;;;;;;11.33;10.30;;;6.70;1.00;;;;;;6326379;27;20635;-53
2022/10/12 04:33:55;;;;;;;11.43;10.00;;;6.70;1.00;;;;;;6331405;27;20232;-53
2022/10/12 04:36:59;;;;;;;11.90;10.37;;;6.70;1.00;;;;;;6335146;27;20224;-53
2022/10/12 04:40:02;;;;;;;11.17;10.03;;;6.70;1.00;;;;;;6325696;27;20712;-53
2022/10/12 04:43:05;;;;;;;12.00;10.53;;;6.50;1.00;;;;;;6335463;27;20232;-53
2022/10/12 04:46:08;;;;;;;11.50;10.20;;;6.70;1.00;;;;;;6342517;27;20697;-53
2022/10/12 04:49:11;;;;;;;10.30;9.30;;;6.60;1.00;;;;;;6331135;27;20494;-54
2022/10/12 04:52:15;;;;;;;11.73;10.50;;;6.80;1.00;;;;;;6341316;27;20232;-53
2022/10/12 04:55:18;;;;;;;13.90;12.47;;;6.70;1.00;;;;;;6344777;27;20612;-53
2022/10/12 04:58:21;;;;;;;12.30;11.00;;;6.60;1.00;;;;;;6346425;27;20437;-54
2022/10/12 05:01:24;;;;;;;11.87;10.27;;;6.70;1.00;;;;;;6333377;27;20835;-53
2022/10/12 05:04:26;;;;;;;12.77;11.43;;;6.40;1.00;;;;;;6330472;27;20236;-53
2022/10/12 05:07:31;;;;;;;14.00;12.60;;;6.80;1.00;;;;;;6331991;27;20627;-53
2022/10/12 05:10:33;;;;;;;14.00;12.53;;;6.50;1.00;;;;;;6336539;27;20235;-54
2022/10/12 05:13:36;;;;;;;13.60;12.17;;;6.50;1.00;;;;;;6328273;27;20236;-53
2022/10/12 05:16:39;;;;;;;13.67;12.17;;;6.50;1.00;;;;;;6330298;27;20246;-54
2022/10/12 05:19:42;;;;;;;11.87;10.77;;;6.40;1.00;;;;;;6333416;27;20615;-55
2022/10/12 05:22:46;;;;;;;14.83;11.63;;;6.50;1.00;;;;;;6336986;27;20243;-53
2022/10/12 05:25:49;;;;;;;13.73;12.27;;;6.70;1.00;;;;;;6345322;27;20732;-53
2022/10/12 05:28:52;;;;;;;14.57;12.47;;;6.50;1.00;;;;;;6334916;27;20236;-49
2022/10/12 05:31:55;;;;;;;12.50;11.23;;;6.60;1.00;;;;;;6337282;27;20267;-51
2022/10/12 05:34:58;;;;;;;13.33;11.37;;;6.70;1.00;;;;;;6334218;27;20246;-54
2022/10/12 05:38:02;;;;;;;13.03;11.80;;;6.40;1.00;;;;;;6330748;27;20234;-53
2022/10/12 05:41:05;;;;;;;14.60;12.07;;;6.40;1.00;;;;;;6337266;27;20728;-54
2022/10/12 05:44:08;;;;;;;12.63;10.93;;;6.50;1.00;;;;;;6324279;27;20232;-53
2022/10/12 05:47:10;;;;;;;11.90;10.63;;;6.50;1.00;;;;;;6341328;27;20236;-53
2022/10/12 05:50:13;;;;;;;12.30;10.97;;;6.40;1.00;;;;;;6326088;28;20868;-53
2022/10/12 05:53:17;;;;;;;12.63;11.33;;;6.60;1.00;;;;;;6335303;27;20236;-53
2022/10/12 05:56:20;;;;;;;16.30;11.73;;;6.40;1.00;;;;;;6334484;27;20232;-54
2022/10/12 05:59:23;;;;;;;15.20;11.83;;;6.60;1.00;;;;;;6338226;27;20246;-54
2022/10/12 06:02:26;;;;;;;13.50;12.17;;;6.50;1.00;;;;;;6340473;27;20243;-54
2022/10/12 06:05:28;;;;;;;14.00;12.60;;;6.70;1.00;;;;;;6331833;27;20231;-52
2022/10/12 06:08:33;;;;;;;15.17;10.93;;;6.70;1.00;;;;;;6329935;27;20235;-54
2022/10/12 06:11:36;;;;;;;15.73;12.10;;;6.70;1.00;;;;;;6328467;27;20303;-53
2022/10/12 06:14:39;;;;;;;12.47;11.33;;;6.80;1.00;;;;;;6332423;27;20228;-53
2022/10/12 06:17:41;;;;;;;13.00;9.97;;;6.80;1.00;;;;;;6331516;28;20462;-54
2022/10/12 06:20:48;;;;;;;11.33;10.40;;;6.70;1.00;;;;;;6337484;27;20700;-53
2022/10/12 06:23:52;;;;;;;11.33;10.27;;;6.90;1.00;;;;;;6345537;27;20246;-54
2022/10/12 06:26:54;;;;;;;13.90;11.10;;;6.90;1.00;;;;;;6346547;27;20708;-54
2022/10/12 06:29:57;;;;;;;14.10;12.07;;;6.90;1.00;;;;;;6338441;27;20227;-52
2022/10/12 06:33:00;;;;;;;17.53;12.00;;;7.20;1.00;;;;;;6337887;27;20616;-54
2022/10/12 06:36:03;;;;;;;12.97;11.27;;;7.00;1.00;;;;;;6338086;27;20228;-53
2022/10/12 06:39:08;;;;;;;11.40;10.00;;;7.00;1.00;;;;;;6337519;27;20235;-54
2022/10/12 06:42:11;;;;;;;13.40;11.97;;;7.40;1.00;;;;;;6339897;27;20236;-54
2022/10/12 06:45:14;;;;;;;14.70;11.63;;;7.30;1.00;;;;;;6334858;27;20243;-54
2022/10/12 06:48:17;;;;;;;13.77;12.37;;;7.30;1.00;;;;;;6339445;27;20726;-50
2022/10/12 06:51:20;;;;;;;15.57;12.20;;;7.30;1.00;;;;;;6333483;27;20239;-53
2022/10/12 06:54:24;;;;;;;15.77;12.60;;;7.50;1.00;;;;;;6346020;27;20239;-53
2022/10/12 06:57:27;;;;;;;14.03;12.07;;;7.70;1.00;;;;;;6345383;27;20228;-53
2022/10/12 07:00:30;;;;;;;16.90;12.77;;;8.00;1.00;;;;;;6341884;27;20231;-53
2022/10/12 07:03:33;;;;;;;13.33;11.73;;;7.90;1.00;;;;;;6355512;27;20239;-53
2022/10/12 07:06:36;;;;;;;20.20;13.40;;;8.00;1.00;;;;;;6340622;27;20240;-52
2022/10/12 07:09:40;;;;;;;17.77;12.33;;;8.10;1.00;;;;;;6336938;27;20261;-54
2022/10/12 07:12:43;;;;;;;16.97;11.67;;;8.10;1.00;;;;;;6337697;27;20621;-54
2022/10/12 07:15:49;;;;;;;15.37;11.20;;;8.20;1.00;;;;;;6334957;27;20720;-53
2022/10/12 07:18:52;;;;;;;14.73;11.50;;;8.40;1.00;;;;;;6333451;27;20593;-54
2022/10/12 07:21:55;;;;;;;13.40;10.47;;;8.40;1.00;;;;;;6331861;27;20266;-53
2022/10/12 07:24:59;;;;;;;14.73;10.60;;;8.50;1.00;;;;;;6333320;28;20228;-53
2022/10/12 07:28:04;;;;;;;13.60;10.43;;;8.60;1.00;;;;;;6351174;27;20618;-54
2022/10/12 07:31:08;;;;;;;18.70;10.27;;;8.80;1.00;;;;;;6336037;27;20255;-54
2022/10/12 07:34:11;;;;;;;15.47;9.50;;;8.90;1.00;;;;;;6340155;27;20733;-53
2022/10/12 07:37:14;;;;;;;12.23;8.93;;;9.00;1.00;;;;;;6330635;27;20240;-54
2022/10/12 07:40:18;;;;;;;14.73;8.57;;;9.20;1.00;;;;;;6335494;27;20446;-54
2022/10/12 07:43:21;;;;;;;14.13;9.00;;;9.30;1.00;;;;;;6336291;27;20232;-54
2022/10/12 07:46:25;;;;;;;11.00;8.60;;;9.40;1.00;;;;;;6336500;27;20231;-53
2022/10/12 07:49:28;;;;;;;11.77;8.10;;;9.50;1.00;;;;;;6327344;27;20246;-53
2022/10/12 07:52:31;;;;;;;14.80;9.80;;;9.60;1.00;;;;;;6325044;27;20227;-52
2022/10/12 07:55:35;;;;;;;13.53;8.43;;;9.80;1.00;;;;;;6332794;27;20740;-52
2022/10/12 07:58:38;;;;;;;16.60;9.20;;;10.00;1.00;;;;;;6337052;27;20243;-54
2022/10/12 08:01:41;;;;;;;18.17;8.47;;;10.10;1.00;;;;;;6338463;27;20255;-52
2022/10/12 08:04:45;;;;;;;15.63;9.00;;;10.30;1.00;;;;;;6336689;27;20232;-54
2022/10/12 08:07:48;;;;;;;16.30;9.37;;;10.40;1.00;;;;;;6335031;27;20701;-53
2022/10/12 08:10:52;;;;;;;16.30;9.43;;;10.50;1.00;;;;;;6345658;27;20238;-55
2022/10/12 08:13:55;;;;;;;13.20;8.50;;;10.60;1.00;;;;;;6334842;27;20735;-53
2022/10/12 08:16:58;;;;;;;11.20;7.83;;;10.80;1.00;;;;;;6339127;27;20437;-53
2022/10/12 08:20:01;;;;;;;12.53;8.27;;;10.80;1.00;;;;;;6327370;27;20238;-53
2022/10/12 08:23:03;;;;;;;18.90;8.07;;;10.90;1.00;;;;;;6338880;27;20244;-54
2022/10/12 08:26:09;;;;;;;15.10;8.17;;;11.00;1.00;;;;;;6345367;27;20254;-53
2022/10/12 08:29:12;;;;;;;14.10;7.77;;;11.20;1.00;;;;;;6336924;27;20251;-55
2022/10/12 08:32:15;;;;;;;7.53;6.83;;;11.20;1.00;;;;;;6340510;27;20783;-53
2022/10/12 08:35:18;;;;;;;16.80;8.00;;;11.30;1.00;;;;;;6331304;27;20481;-55
2022/10/12 08:38:20;;;;;;;10.30;6.63;;;11.40;1.00;;;;;;6335249;27;20220;-54
2022/10/12 08:41:38;;;;;;;12.67;7.53;;;11.50;1.00;;;;;;6335964;27;20239;-54
2022/10/12 08:44:56;;;;;;;13.90;7.60;;;11.70;1.00;;;;;;6335064;27;20308;-54
2022/10/12 08:48:01;;;;;;;10.07;6.93;;;11.80;1.00;;;;;;6318081;27;20236;-55
2022/10/12 08:51:07;;;;;;;13.40;7.60;;;11.90;1.00;;;;;;6329113;27;20239;-53
2022/10/12 08:54:14;;;;;;;13.33;7.27;;;12.00;1.00;;;;;;6338964;27;20274;-54
2022/10/12 08:57:19;;;;;;;13.43;7.50;;;12.10;1.00;;;;;;6339112;27;20228;-53
2022/10/12 09:00:22;;;;;;;11.80;6.40;;;12.20;1.00;;;;;;6332879;27;20279;-55
2022/10/12 09:03:42;;;;;;;15.73;7.47;;;12.40;1.00;;;;;;6329319;27;20373;-53
2022/10/12 09:06:49;;;;;;;15.47;7.73;;;12.60;1.00;;;;;;6324264;27;20236;-53
2022/10/12 09:10:02;;;;;;;12.97;7.73;;;12.60;1.00;;;;;;6340295;27;20232;-53
2022/10/12 09:13:18;;;;;;;16.07;7.70;;;12.70;1.00;;;;;;6327374;27;20228;-54
2022/10/12 09:16:24;;;;;;;9.80;6.30;;;12.80;1.00;;;;;;6325989;28;20241;-53
2022/10/12 09:19:32;;;;;;;14.83;6.30;;;12.90;1.00;;;;;;6333156;27;20250;-54
2022/10/12 09:22:35;;;;;;;15.93;6.30;;;13.00;1.00;;;;;;6332820;28;20243;-54
2022/10/12 09:25:41;;;;;;;17.13;7.43;;;13.20;1.00;;;;;;6329561;28;20236;-53
2022/10/12 09:28:50;;;;;;;13.10;6.77;;;13.30;1.00;;;;;;6334768;27;20244;-53
2022/10/12 09:32:08;;;;;;;12.67;7.37;;;13.40;1.00;;;;;;6335534;27;20624;-54
2022/10/12 09:35:13;;;;;;;18.23;7.83;;;13.60;1.00;;;;;;6331299;27;20235;-53
2022/10/12 09:38:16;;;;;;;13.67;6.90;;;13.60;1.00;;;;;;6336576;27;20235;-54
2022/10/12 09:41:22;;;;;;;13.70;6.73;;;13.80;1.00;;;;;;6328030;27;20232;-53
2022/10/12 09:44:31;;;;;;;13.67;5.90;;;13.90;1.00;;;;;;6336706;27;20251;-54
2022/10/12 09:47:34;;;;;;;6.80;5.83;;;14.00;1.00;;;;;;6332635;27;20616;-55
2022/10/12 09:50:43;;;;;;;17.87;5.73;;;14.10;1.00;;;;;;6335850;27;20238;-54
2022/10/12 09:53:49;;;;;;;14.60;5.00;;;14.30;1.00;;;;;;6336016;27;20743;-54
2022/10/12 09:56:58;;;;;;;10.67;4.80;;;14.40;1.00;;;;;;6334278;27;20585;-58
2022/10/12 10:00:07;;;;;;;10.23;5.77;;;14.60;1.00;;;;;;6327390;28;20228;-54
2022/10/12 10:03:24;;;;;;;8.03;4.60;;;14.60;1.00;;;;;;6335898;27;20435;-53
2022/10/12 10:06:33;;;;;;;9.23;4.30;;;14.70;1.00;;;;;;6332108;28;20292;-53
2022/10/12 10:09:36;;;;;;;8.43;4.57;;;14.90;1.00;;;;;;6332697;27;20411;-50
2022/10/12 10:12:43;;;;;;;17.87;5.00;;;15.00;1.00;;;;;;6334112;27;20622;-54
2022/10/12 10:15:49;;;;;;;6.93;4.57;;;15.00;1.00;;;;;;6332614;27;20613;-54
2022/10/12 10:18:57;;;;;;;4.97;4.30;;;15.10;1.00;;;;;;6332164;28;20232;-53
2022/10/12 10:22:05;;;;;;;7.53;4.47;;;15.20;1.00;;;;;;6337690;27;20240;-54
2022/10/12 10:25:20;;;;;;;7.27;4.13;;;15.30;1.00;;;;;;6331627;28;20633;-54
2022/10/12 10:28:27;;;;;;;5.47;3.70;;;15.40;1.00;;;;;;6334238;27;20228;-54
2022/10/12 10:31:34;;;;;;;11.13;3.83;;;15.40;1.00;;;;;;6332051;27;20315;-54
2022/10/12 10:34:37;;;;;;;10.93;4.00;;;15.70;1.00;;;;;;6330379;27;20236;-54
2022/10/12 10:37:44;;;;;;;6.73;4.10;;;15.80;1.00;;;;;;6325345;28;20235;-53
2022/10/12 10:40:51;;;;;;;6.33;3.37;;;15.90;1.00;;;;;;6335635;27;21652;-56
2022/10/12 10:43:54;;;;;;;6.57;3.47;;;15.90;1.00;;;;;;6328716;27;20284;-55
2022/10/12 10:47:02;;;;;;;5.13;3.30;;;15.90;1.00;;;;;;6329834;27;20238;-53
2022/10/12 10:50:10;;;;;;;5.07;3.03;;;16.00;1.00;;;;;;6324964;28;20224;-53
2022/10/12 10:53:20;;;;;;;10.33;4.03;;;16.20;1.00;;;;;;6328042;27;20242;-55
2022/10/12 10:56:25;;;;;;;5.23;3.37;;;16.30;1.00;;;;;;6328593;28;20239;-54
2022/10/12 10:59:36;;;;;;;11.53;4.73;;;16.50;1.00;;;;;;6323763;27;20228;-54
2022/10/12 11:02:47;;;;;;;10.00;4.27;;;16.50;1.00;;;;;;6335785;27;20236;-53
2022/10/12 11:05:54;;;;;;;3.80;2.97;;;16.50;1.00;;;;;;6327860;27;20272;-54
2022/10/12 11:09:02;;;;;;;7.77;3.97;;;16.40;1.00;;;;;;6331127;27;20232;-54
2022/10/12 11:12:09;;;;;;;9.90;3.80;;;16.50;1.00;;;;;;6330741;27;20228;-54
2022/10/12 11:15:20;;;;;;;7.97;3.23;;;16.60;1.00;;;;;;6336522;27;20227;-55
2022/10/12 11:18:30;;;;;;;7.50;3.10;;;16.60;1.00;;;;;;6337037;27;20228;-53
2022/10/12 11:21:38;;;;;;;6.03;3.10;;;16.60;1.00;;;;;;6330130;27;20672;-53
2022/10/12 11:24:46;;;;;;;5.73;3.30;;;16.60;1.00;;;;;;6334623;27;20232;-55
2022/10/12 11:27:50;;;;;;;6.10;3.10;;;16.40;1.00;;;;;;6352539;27;20646;-53
2022/10/12 11:30:55;;;;;;;11.20;3.77;;;16.40;1.00;;;;;;6338747;27;20736;-54
2022/10/12 11:34:04;;;;;;;13.10;4.20;;;16.50;1.00;;;;;;6341101;27;20243;-53
2022/10/12 11:37:18;;;;;;;8.67;4.27;;;16.50;1.00;;;;;;6333412;27;20228;-56
2022/10/12 11:40:28;;;;;;;7.93;3.60;;;16.70;1.00;;;;;;6336550;27;20630;-54
2022/10/12 11:43:55;;;;;;;8.30;3.40;;;16.80;1.00;;;;;;6339891;27;20231;-55
2022/10/12 11:47:03;;;;;;;12.03;3.20;;;16.60;1.00;;;;;;6334531;27;20243;-54
2022/10/12 11:50:20;;;;;;;9.97;3.10;;;16.80;1.00;;;;;;6337795;27;20614;-55
2022/10/12 11:53:30;;;;;;;8.07;2.50;;;16.90;1.00;;;;;;6335001;27;20236;-55
2022/10/12 11:56:39;;;;;;;5.53;2.83;;;17.10;1.00;;;;;;6340710;27;20243;-55
2022/10/12 11:59:46;;;;;;;9.50;3.40;;;17.40;1.00;;;;;;6333413;27;20763;-53
2022/10/12 12:02:54;;;;;;;8.63;3.17;;;17.60;1.00;;;;;;6338765;27;20240;-54
2022/10/12 12:06:38;;;;;;;6.43;2.67;;;17.80;1.00;;;;;;6318855;27;20700;-52
2022/10/12 12:09:43;;;;;;;8.23;3.07;;;17.90;1.00;;;;;;6331667;27;20229;-53
2022/10/12 12:13:10;;;;;;;7.40;3.07;;;17.50;1.00;;;;;;6335962;27;20417;-54
2022/10/12 12:16:32;;;;;;;6.77;2.80;;;17.50;1.00;;;;;;6336615;27;20217;-55
2022/10/12 12:19:37;;;;;;;5.83;3.13;;;17.40;1.00;;;;;;6328694;28;20729;-54
2022/10/12 12:22:53;;;;;;;6.17;3.00;;;17.30;1.00;;;;;;6324544;27;20436;-53
2022/10/12 12:26:13;;;;;;;6.83;3.00;;;17.20;1.00;;;;;;6330514;27;20608;-53
2022/10/12 12:29:26;;;;;;;6.03;2.80;;;17.10;1.00;;;;;;6336958;27;20231;-54
2022/10/12 12:32:43;;;;;;;5.00;2.73;;;17.10;1.00;;;;;;6341614;27;20694;-53
2022/10/12 12:35:53;;;;;;;10.33;2.70;;;17.20;1.00;;;;;;6328507;27;20228;-55
2022/10/12 12:38:58;;;;;;;9.20;2.83;;;17.10;1.00;;;;;;6332021;27;20255;-53
2022/10/12 12:42:02;;;;;;;9.40;3.30;;;16.90;1.00;;;;;;6332658;27;20773;-54
2022/10/12 12:45:40;;;;;;;8.27;3.43;;;17.00;1.00;;;;;;6326011;27;20386;-54
2022/10/12 12:49:03;;;;;;;7.07;2.77;;;17.00;1.00;;;;;;6331459;27;20383;-54
2022/10/12 12:52:13;;;;;;;5.23;2.50;;;17.10;1.00;;;;;;6331952;27;20232;-54
2022/10/12 12:55:43;;;;;;;9.67;2.80;;;17.20;1.00;;;;;;6336332;27;20223;-53
2022/10/12 12:59:11;;;;;;;5.70;2.57;;;17.30;1.00;;;;;;6332732;27;20225;-53
2022/10/12 13:02:35;;;;;;;7.80;2.80;;;17.40;1.00;;;;;;6330693;27;20238;-53
2022/10/12 13:06:06;;;;;;;11.23;3.00;;;17.40;1.00;;;;;;6330875;28;20638;-54
2022/10/12 13:09:33;;;;;;;4.60;2.63;;;17.40;1.00;;;;;;6337267;27;20231;-53
2022/10/12 13:13:01;;;;;;;6.77;3.10;;;17.40;1.00;;;;;;6336085;27;20228;-56
2022/10/12 13:16:19;;;;;;;9.97;3.57;;;17.40;1.00;;;;;;6329586;27;20223;-54
2022/10/12 13:19:43;;;;;;;5.70;3.00;;;17.40;1.00;;;;;;6330681;27;20263;-57
2022/10/12 13:22:47;;;;;;;4.30;2.90;;;17.40;1.00;;;;;;6329110;27;20240;-53
2022/10/12 13:25:54;;;;;;;9.80;3.07;;;17.20;1.00;;;;;;6340960;27;20239;-54
2022/10/12 13:29:05;;;;;;;5.83;2.60;;;17.20;1.00;;;;;;6335889;27;20228;-53
2022/10/12 13:32:19;;;;;;;4.00;2.57;;;17.30;1.00;;;;;;6329550;27;20231;-54
2022/10/12 13:35:30;;;;;;;5.83;2.67;;;17.20;1.00;;;;;;6325741;27;20885;-55
2022/10/12 13:38:37;;;;;;;4.47;2.70;;;17.20;1.00;;;;;;6327323;28;20248;-53
2022/10/12 13:41:40;;;;;;;7.50;2.83;;;17.10;1.00;;;;;;6331844;27;20236;-54
2022/10/12 13:44:47;;;;;;;3.30;2.60;;;17.00;1.00;;;;;;6326026;28;20231;-54
2022/10/12 13:47:50;;;;;;;4.00;2.70;;;17.00;1.00;;;;;;6326518;27;20701;-54
2022/10/12 13:50:55;;;;;;;7.00;2.90;;;17.10;1.00;;;;;;6334902;27;20247;-54
2022/10/12 13:53:58;;;;;;;8.90;2.90;;;17.10;1.00;;;;;;6327345;28;20758;-55
2022/10/12 13:57:04;;;;;;;3.57;3.10;;;17.10;1.00;;;;;;6345450;27;20248;-54
2022/10/12 14:00:18;;;;;;;6.60;2.90;;;17.10;1.00;;;;;;6337611;27;20267;-54
2022/10/12 14:03:25;;;;;;;4.23;3.17;;;17.00;1.00;;;;;;6331283;27;20238;-55
2022/10/12 14:06:30;;;;;;;5.67;3.43;;;17.00;1.00;;;;;;6331812;28;20240;-54
2022/10/12 14:09:40;;;;;;;7.87;3.63;;;17.00;1.00;;;;;;6332216;27;20243;-53
2022/10/12 14:12:46;;;;;;;4.07;2.63;;;16.90;1.00;;;;;;6331766;27;20235;-53
2022/10/12 14:15:50;;;;;;;4.53;3.07;;;16.80;1.00;;;;;;6333216;27;20232;-56
2022/10/12 14:18:53;;;;;;;8.63;2.90;;;16.70;1.00;;;;;;6329026;27;20816;-57
2022/10/12 14:21:56;;;;;;;5.43;2.93;;;16.70;1.00;;;;;;6333022;27;20626;-54
2022/10/12 14:25:10;;;;;;;3.57;2.60;;;16.60;1.00;;;;;;6326599;28;20243;-55
2022/10/12 14:28:26;;;;;;;2.63;2.43;;;16.60;1.00;;;;;;6333138;27;20606;-54
2022/10/12 14:31:53;;;;;;;3.17;2.87;;;16.50;1.00;;;;;;6330977;27;20236;-54
2022/10/12 14:35:11;;;;;;;3.83;3.23;;;16.50;1.00;;;;;;6333445;27;20228;-53
2022/10/12 14:38:37;;;;;;;8.20;4.10;;;16.40;1.00;;;;;;6325720;27;20224;-53
2022/10/12 14:41:49;;;;;;;6.33;3.77;;;16.20;1.00;;;;;;6329406;27;20239;-55
2022/10/12 14:44:52;;;;;;;5.13;3.20;;;16.10;1.00;;;;;;6328690;27;20240;-53
2022/10/12 14:47:58;;;;;;;4.63;3.43;;;16.00;1.00;;;;;;6336719;27;20242;-55
2022/10/12 14:51:01;;;;;;;6.40;3.10;;;15.90;1.00;;;;;;6335699;27;20248;-54
2022/10/12 14:54:05;;;;;;;8.33;3.40;;;15.80;1.00;;;;;;6337372;27;20227;-53
2022/10/12 14:57:12;;;;;;;3.87;2.87;;;15.70;1.00;;;;;;6341451;27;20228;-55
2022/10/12 15:00:18;;;;;;;6.67;4.20;;;15.60;1.00;;;;;;6340151;27;20228;-54
2022/10/12 15:03:22;;;;;;;8.27;5.00;;;15.50;1.00;;;;;;6335515;28;20235;-53
2022/10/12 15:06:25;;;;;;;3.47;3.10;;;15.30;1.00;;;;;;6340621;27;20313;-54
2022/10/12 15:09:27;;;;;;;5.23;3.07;;;15.20;1.00;;;;;;6341861;27;20723;-55
2022/10/12 15:12:31;;;;;;;6.90;3.60;;;15.00;1.00;;;;;;6332396;27;20238;-54
2022/10/12 15:15:39;;;;;;;3.87;2.87;;;15.00;1.00;;;;;;6333673;27;20227;-54
2022/10/12 15:18:43;;;;;;;3.13;2.90;;;14.90;1.00;;;;;;6325758;27;20239;-53
2022/10/12 15:21:46;;;;;;;5.90;2.70;;;14.80;1.00;;;;;;6333489;27;20227;-54
2022/10/12 15:24:50;;;;;;;6.73;3.47;;;14.80;1.00;;;;;;6337189;27;20232;-54
2022/10/12 15:27:53;;;;;;;5.57;2.80;;;14.70;1.00;;;;;;6343546;27;20232;-54
2022/10/12 15:30:56;;;;;;;7.10;2.93;;;14.60;1.00;;;;;;6337678;27;20306;-54
2022/10/12 15:34:19;;;;;;;4.07;2.77;;;14.50;1.00;;;;;;6335361;27;20244;-53
2022/10/12 15:37:25;;;;;;;6.80;2.97;;;14.40;1.00;;;;;;6333159;27;20228;-55
2022/10/12 15:40:30;;;;;;;5.47;3.13;;;14.40;1.00;;;;;;6337171;27;20224;-55
2022/10/12 15:43:33;;;;;;;9.37;3.77;;;14.30;1.00;;;;;;6342215;27;20380;-55
2022/10/12 15:46:40;;;;;;;4.90;3.93;;;14.20;1.00;;;;;;6333891;27;20725;-53
2022/10/12 15:49:45;;;;;;;6.93;3.57;;;14.20;1.00;;;;;;6346556;27;20251;-53
2022/10/12 15:52:48;;;;;;;4.57;3.50;;;14.10;1.00;;;;;;6327737;27;20386;-54
2022/10/12 15:55:52;;;;;;;7.77;3.83;;;14.00;1.00;;;;;;6334463;27;20737;-56
2022/10/12 15:58:54;;;;;;;4.90;4.03;;;13.90;1.00;;;;;;6342718;27;20243;-53
2022/10/12 16:01:58;;;;;;;5.43;3.30;;;13.80;1.00;;;;;;6339728;27;20239;-54
2022/10/12 16:05:02;;;;;;;5.33;3.90;;;13.80;1.00;;;;;;6339660;27;20251;-53
2022/10/12 16:08:06;;;;;;;10.90;3.57;;;13.70;1.00;;;;;;6341222;27;20269;-55
2022/10/12 16:11:12;;;;;;;6.17;3.63;;;13.60;1.00;;;;;;6337272;27;20258;-54
2022/10/12 16:14:15;;;;;;;4.03;3.40;;;13.60;1.00;;;;;;6334288;27;20720;-59
2022/10/12 16:17:18;;;;;;;4.80;3.63;;;13.50;1.00;;;;;;6331186;27;20717;-55